sensor_id;sensor_type;location;lat;lon;timestamp;P1;durP1;ratioP1;P2;durP2;ratioP2
52015;SDS011;38032;53.326;6.472;2024-01-11T00:01:14;34.28;;;17.35;;
52015;SDS011;38032;53.326;6.472;2024-01-11T00:03:40;35.83;;;18.23;;
52015;SDS011;38032;53.326;6.472;2024-01-11T00:06:05;37.05;;;18.80;;
52015;SDS011;38032;53.326;6.472;2024-01-11T00:08:31;34.90;;;18.50;;
52015;SDS011;38032;53.326;6.472;2024-01-11T00:10:57;36.30;;;17.88;;
52015;SDS011;38032;53.326;6.472;2024-01-11T00:13:23;40.60;;;19.55;;
52015;SDS011;38032;53.326;6.472;2024-01-11T00:15:49;37.97;;;18.17;;
52015;SDS011;38032;53.326;6.472;2024-01-11T00:18:15;35.53;;;17.98;;
52015;SDS011;38032;53.326;6.472;2024-01-11T00:20:42;34.80;;;18.02;;
52015;SDS011;38032;53.326;6.472;2024-01-11T00:23:08;35.50;;;18.15;;
52015;SDS011;38032;53.326;6.472;2024-01-11T00:25:34;36.35;;;17.85;;
52015;SDS011;38032;53.326;6.472;2024-01-11T00:28:00;36.80;;;17.67;;
52015;SDS011;38032;53.326;6.472;2024-01-11T00:30:26;39.05;;;18.45;;
52015;SDS011;38032;53.326;6.472;2024-01-11T00:32:52;35.17;;;18.08;;
52015;SDS011;38032;53.326;6.472;2024-01-11T00:35:18;36.50;;;17.30;;
52015;SDS011;38032;53.326;6.472;2024-01-11T00:37:44;33.38;;;17.25;;
52015;SDS011;38032;53.326;6.472;2024-01-11T00:40:10;32.75;;;17.25;;
52015;SDS011;38032;53.326;6.472;2024-01-11T00:42:36;33.60;;;16.90;;
52015;SDS011;38032;53.326;6.472;2024-01-11T00:45:02;38.55;;;18.48;;
52015;SDS011;38032;53.326;6.472;2024-01-11T00:47:29;38.03;;;19.20;;
52015;SDS011;38032;53.326;6.472;2024-01-11T00:49:55;34.50;;;17.90;;
52015;SDS011;38032;53.326;6.472;2024-01-11T00:52:20;43.38;;;19.35;;
52015;SDS011;38032;53.326;6.472;2024-01-11T00:54:46;38.78;;;19.13;;
52015;SDS011;38032;53.326;6.472;2024-01-11T00:57:12;36.88;;;17.40;;
52015;SDS011;38032;53.326;6.472;2024-01-11T00:59:39;34.03;;;18.02;;
52015;SDS011;38032;53.326;6.472;2024-01-11T01:02:06;36.90;;;18.33;;
52015;SDS011;38032;53.326;6.472;2024-01-11T01:04:31;39.85;;;18.33;;
52015;SDS011;38032;53.326;6.472;2024-01-11T01:06:57;35.05;;;18.15;;
52015;SDS011;38032;53.326;6.472;2024-01-11T01:09:23;37.42;;;18.90;;
52015;SDS011;38032;53.326;6.472;2024-01-11T01:11:49;36.90;;;18.17;;
52015;SDS011;38032;53.326;6.472;2024-01-11T01:14:15;36.67;;;19.23;;
52015;SDS011;38032;53.326;6.472;2024-01-11T01:16:41;40.50;;;19.67;;
52015;SDS011;38032;53.326;6.472;2024-01-11T01:19:07;35.70;;;18.20;;
52015;SDS011;38032;53.326;6.472;2024-01-11T01:21:33;37.65;;;17.95;;
52015;SDS011;38032;53.326;6.472;2024-01-11T01:23:58;39.35;;;19.40;;
52015;SDS011;38032;53.326;6.472;2024-01-11T01:26:24;41.10;;;18.55;;
52015;SDS011;38032;53.326;6.472;2024-01-11T01:28:50;38.90;;;19.23;;
52015;SDS011;38032;53.326;6.472;2024-01-11T01:31:16;37.63;;;19.08;;
52015;SDS011;38032;53.326;6.472;2024-01-11T01:33:42;39.30;;;19.10;;
52015;SDS011;38032;53.326;6.472;2024-01-11T01:36:08;40.50;;;19.70;;
52015;SDS011;38032;53.326;6.472;2024-01-11T01:38:35;40.10;;;20.20;;
52015;SDS011;38032;53.326;6.472;2024-01-11T01:41:01;39.88;;;18.58;;
52015;SDS011;38032;53.326;6.472;2024-01-11T01:43:27;37.95;;;19.35;;
52015;SDS011;38032;53.326;6.472;2024-01-11T01:45:53;38.92;;;19.55;;
52015;SDS011;38032;53.326;6.472;2024-01-11T01:48:19;40.53;;;19.80;;
52015;SDS011;38032;53.326;6.472;2024-01-11T01:50:46;36.50;;;18.77;;
52015;SDS011;38032;53.326;6.472;2024-01-11T01:53:18;39.08;;;19.90;;
52015;SDS011;38032;53.326;6.472;2024-01-11T01:55:46;37.28;;;19.35;;
52015;SDS011;38032;53.326;6.472;2024-01-11T01:58:13;37.95;;;19.45;;
52015;SDS011;38032;53.326;6.472;2024-01-11T02:00:40;39.33;;;20.23;;
52015;SDS011;38032;53.326;6.472;2024-01-11T02:03:07;41.75;;;20.08;;
52015;SDS011;38032;53.326;6.472;2024-01-11T02:05:34;41.50;;;20.48;;
52015;SDS011;38032;53.326;6.472;2024-01-11T02:08:01;41.97;;;20.13;;
52015;SDS011;38032;53.326;6.472;2024-01-11T02:10:33;40.30;;;19.00;;
52015;SDS011;38032;53.326;6.472;2024-01-11T02:13:00;37.72;;;19.95;;
52015;SDS011;38032;53.326;6.472;2024-01-11T02:15:26;34.42;;;17.15;;
52015;SDS011;38032;53.326;6.472;2024-01-11T02:17:52;39.35;;;19.13;;
52015;SDS011;38032;53.326;6.472;2024-01-11T02:20:18;36.38;;;18.30;;
52015;SDS011;38032;53.326;6.472;2024-01-11T02:22:46;35.42;;;18.15;;
52015;SDS011;38032;53.326;6.472;2024-01-11T02:25:15;39.05;;;19.90;;
52015;SDS011;38032;53.326;6.472;2024-01-11T02:27:45;36.22;;;18.33;;
52015;SDS011;38032;53.326;6.472;2024-01-11T02:30:15;38.10;;;18.50;;
52015;SDS011;38032;53.326;6.472;2024-01-11T02:32:43;37.05;;;17.77;;
52015;SDS011;38032;53.326;6.472;2024-01-11T02:35:12;39.20;;;19.13;;
52015;SDS011;38032;53.326;6.472;2024-01-11T02:37:39;36.05;;;19.17;;
52015;SDS011;38032;53.326;6.472;2024-01-11T02:40:07;40.97;;;20.08;;
52015;SDS011;38032;53.326;6.472;2024-01-11T02:42:34;36.88;;;19.40;;
52015;SDS011;38032;53.326;6.472;2024-01-11T02:45:00;38.35;;;18.08;;
52015;SDS011;38032;53.326;6.472;2024-01-11T02:47:28;45.17;;;20.98;;
52015;SDS011;38032;53.326;6.472;2024-01-11T02:49:54;39.30;;;18.88;;
52015;SDS011;38032;53.326;6.472;2024-01-11T02:52:20;40.72;;;20.00;;
52015;SDS011;38032;53.326;6.472;2024-01-11T02:54:47;45.15;;;21.23;;
52015;SDS011;38032;53.326;6.472;2024-01-11T02:57:13;43.15;;;21.38;;
52015;SDS011;38032;53.326;6.472;2024-01-11T02:59:39;37.42;;;19.75;;
52015;SDS011;38032;53.326;6.472;2024-01-11T03:02:05;39.08;;;19.38;;
52015;SDS011;38032;53.326;6.472;2024-01-11T03:04:31;41.78;;;20.67;;
52015;SDS011;38032;53.326;6.472;2024-01-11T03:06:57;42.40;;;20.38;;
52015;SDS011;38032;53.326;6.472;2024-01-11T03:09:23;39.00;;;19.70;;
52015;SDS011;38032;53.326;6.472;2024-01-11T03:11:49;40.88;;;19.98;;
52015;SDS011;38032;53.326;6.472;2024-01-11T03:14:14;42.00;;;20.58;;
52015;SDS011;38032;53.326;6.472;2024-01-11T03:16:40;42.83;;;21.15;;
52015;SDS011;38032;53.326;6.472;2024-01-11T03:19:08;44.00;;;20.90;;
52015;SDS011;38032;53.326;6.472;2024-01-11T03:21:33;45.35;;;21.50;;
52015;SDS011;38032;53.326;6.472;2024-01-11T03:23:59;40.95;;;20.70;;
52015;SDS011;38032;53.326;6.472;2024-01-11T03:26:25;37.83;;;19.83;;
52015;SDS011;38032;53.326;6.472;2024-01-11T03:28:51;39.67;;;18.88;;
52015;SDS011;38032;53.326;6.472;2024-01-11T03:31:17;37.50;;;18.90;;
52015;SDS011;38032;53.326;6.472;2024-01-11T03:33:42;38.45;;;18.65;;
52015;SDS011;38032;53.326;6.472;2024-01-11T03:36:09;36.30;;;18.45;;
52015;SDS011;38032;53.326;6.472;2024-01-11T03:38:35;38.30;;;19.50;;
52015;SDS011;38032;53.326;6.472;2024-01-11T03:41:01;40.13;;;19.80;;
52015;SDS011;38032;53.326;6.472;2024-01-11T03:43:27;38.33;;;19.50;;
52015;SDS011;38032;53.326;6.472;2024-01-11T03:45:53;38.78;;;19.67;;
52015;SDS011;38032;53.326;6.472;2024-01-11T03:48:19;41.78;;;20.80;;
52015;SDS011;38032;53.326;6.472;2024-01-11T03:50:45;37.42;;;19.95;;
52015;SDS011;38032;53.326;6.472;2024-01-11T03:53:10;39.38;;;19.58;;
52015;SDS011;38032;53.326;6.472;2024-01-11T03:55:36;40.45;;;20.25;;
52015;SDS011;38032;53.326;6.472;2024-01-11T03:58:02;42.30;;;19.83;;
52015;SDS011;38032;53.326;6.472;2024-01-11T04:00:28;40.88;;;20.05;;
52015;SDS011;38032;53.326;6.472;2024-01-11T04:02:54;38.25;;;19.35;;
52015;SDS011;38032;53.326;6.472;2024-01-11T04:05:20;37.72;;;19.65;;
52015;SDS011;38032;53.326;6.472;2024-01-11T04:07:45;37.60;;;19.35;;
52015;SDS011;38032;53.326;6.472;2024-01-11T04:10:11;38.50;;;19.05;;
52015;SDS011;38032;53.326;6.472;2024-01-11T04:12:37;38.47;;;19.40;;
52015;SDS011;38032;53.326;6.472;2024-01-11T04:15:03;38.78;;;20.17;;
52015;SDS011;38032;53.326;6.472;2024-01-11T04:17:29;37.47;;;19.25;;
52015;SDS011;38032;53.326;6.472;2024-01-11T04:19:55;39.75;;;20.42;;
52015;SDS011;38032;53.326;6.472;2024-01-11T04:22:21;41.45;;;20.42;;
52015;SDS011;38032;53.326;6.472;2024-01-11T04:24:46;37.80;;;20.00;;
52015;SDS011;38032;53.326;6.472;2024-01-11T04:27:12;38.28;;;19.75;;
52015;SDS011;38032;53.326;6.472;2024-01-11T04:29:38;37.80;;;19.40;;
52015;SDS011;38032;53.326;6.472;2024-01-11T04:32:04;36.25;;;19.15;;
52015;SDS011;38032;53.326;6.472;2024-01-11T04:34:30;41.92;;;21.58;;
52015;SDS011;38032;53.326;6.472;2024-01-11T04:36:56;43.80;;;20.98;;
52015;SDS011;38032;53.326;6.472;2024-01-11T04:39:22;39.45;;;20.60;;
52015;SDS011;38032;53.326;6.472;2024-01-11T04:41:48;41.65;;;21.27;;
52015;SDS011;38032;53.326;6.472;2024-01-11T04:44:14;39.10;;;20.05;;
52015;SDS011;38032;53.326;6.472;2024-01-11T04:46:40;42.42;;;21.85;;
52015;SDS011;38032;53.326;6.472;2024-01-11T04:49:06;42.10;;;21.20;;
52015;SDS011;38032;53.326;6.472;2024-01-11T04:51:32;41.50;;;21.00;;
52015;SDS011;38032;53.326;6.472;2024-01-11T04:53:57;43.05;;;21.42;;
52015;SDS011;38032;53.326;6.472;2024-01-11T04:56:23;42.92;;;21.85;;
52015;SDS011;38032;53.326;6.472;2024-01-11T04:58:49;44.67;;;22.08;;
52015;SDS011;38032;53.326;6.472;2024-01-11T05:01:15;41.92;;;21.00;;
52015;SDS011;38032;53.326;6.472;2024-01-11T05:03:42;42.65;;;21.00;;
52015;SDS011;38032;53.326;6.472;2024-01-11T05:06:14;42.30;;;21.77;;
52015;SDS011;38032;53.326;6.472;2024-01-11T05:08:42;41.22;;;21.75;;
52015;SDS011;38032;53.326;6.472;2024-01-11T05:11:15;41.15;;;21.55;;
52015;SDS011;38032;53.326;6.472;2024-01-11T05:13:42;41.78;;;21.00;;
52015;SDS011;38032;53.326;6.472;2024-01-11T05:16:16;44.55;;;21.67;;
52015;SDS011;38032;53.326;6.472;2024-01-11T05:18:44;44.88;;;22.17;;
52015;SDS011;38032;53.326;6.472;2024-01-11T05:21:10;42.45;;;22.42;;
52015;SDS011;38032;53.326;6.472;2024-01-11T05:23:36;41.20;;;21.90;;
52015;SDS011;38032;53.326;6.472;2024-01-11T05:26:01;43.17;;;21.38;;
52015;SDS011;38032;53.326;6.472;2024-01-11T05:28:27;40.35;;;21.05;;
52015;SDS011;38032;53.326;6.472;2024-01-11T05:30:53;39.33;;;20.50;;
52015;SDS011;38032;53.326;6.472;2024-01-11T05:33:20;39.15;;;20.30;;
52015;SDS011;38032;53.326;6.472;2024-01-11T05:35:46;41.20;;;21.48;;
52015;SDS011;38032;53.326;6.472;2024-01-11T05:38:12;37.70;;;19.90;;
52015;SDS011;38032;53.326;6.472;2024-01-11T05:40:37;38.72;;;20.05;;
52015;SDS011;38032;53.326;6.472;2024-01-11T05:43:03;40.35;;;20.17;;
52015;SDS011;38032;53.326;6.472;2024-01-11T05:45:29;43.05;;;22.33;;
52015;SDS011;38032;53.326;6.472;2024-01-11T05:47:55;41.22;;;21.10;;
52015;SDS011;38032;53.326;6.472;2024-01-11T05:50:20;37.40;;;19.95;;
52015;SDS011;38032;53.326;6.472;2024-01-11T05:52:46;38.53;;;20.40;;
52015;SDS011;38032;53.326;6.472;2024-01-11T05:55:12;37.58;;;20.35;;
52015;SDS011;38032;53.326;6.472;2024-01-11T05:57:38;39.95;;;19.77;;
52015;SDS011;38032;53.326;6.472;2024-01-11T06:00:04;37.78;;;19.55;;
52015;SDS011;38032;53.326;6.472;2024-01-11T06:02:30;41.50;;;21.08;;
52015;SDS011;38032;53.326;6.472;2024-01-11T06:04:57;38.17;;;19.98;;
52015;SDS011;38032;53.326;6.472;2024-01-11T06:07:22;40.70;;;20.60;;
52015;SDS011;38032;53.326;6.472;2024-01-11T06:09:48;42.05;;;20.77;;
52015;SDS011;38032;53.326;6.472;2024-01-11T06:12:14;39.20;;;20.80;;
52015;SDS011;38032;53.326;6.472;2024-01-11T06:14:40;41.17;;;21.55;;
52015;SDS011;38032;53.326;6.472;2024-01-11T06:17:06;37.75;;;20.67;;
52015;SDS011;38032;53.326;6.472;2024-01-11T06:19:36;37.10;;;19.25;;
52015;SDS011;38032;53.326;6.472;2024-01-11T06:22:03;38.13;;;20.17;;
52015;SDS011;38032;53.326;6.472;2024-01-11T06:24:29;41.67;;;21.38;;
52015;SDS011;38032;53.326;6.472;2024-01-11T06:26:55;38.88;;;20.33;;
52015;SDS011;38032;53.326;6.472;2024-01-11T06:29:21;38.28;;;20.15;;
52015;SDS011;38032;53.326;6.472;2024-01-11T06:31:47;38.45;;;19.63;;
52015;SDS011;38032;53.326;6.472;2024-01-11T06:34:13;35.28;;;18.65;;
52015;SDS011;38032;53.326;6.472;2024-01-11T06:36:39;36.13;;;19.00;;
52015;SDS011;38032;53.326;6.472;2024-01-11T06:39:04;36.47;;;19.13;;
52015;SDS011;38032;53.326;6.472;2024-01-11T06:41:31;35.47;;;19.02;;
52015;SDS011;38032;53.326;6.472;2024-01-11T06:43:57;36.75;;;18.92;;
52015;SDS011;38032;53.326;6.472;2024-01-11T06:46:22;37.17;;;20.55;;
52015;SDS011;38032;53.326;6.472;2024-01-11T06:48:48;39.72;;;20.75;;
52015;SDS011;38032;53.326;6.472;2024-01-11T06:51:15;42.05;;;20.10;;
52015;SDS011;38032;53.326;6.472;2024-01-11T06:53:41;39.60;;;19.90;;
52015;SDS011;38032;53.326;6.472;2024-01-11T06:56:15;37.00;;;20.60;;
52015;SDS011;38032;53.326;6.472;2024-01-11T06:58:43;38.60;;;19.83;;
52015;SDS011;38032;53.326;6.472;2024-01-11T07:01:09;35.80;;;19.38;;
52015;SDS011;38032;53.326;6.472;2024-01-11T07:03:35;37.92;;;19.95;;
52015;SDS011;38032;53.326;6.472;2024-01-11T07:06:01;37.03;;;19.95;;
52015;SDS011;38032;53.326;6.472;2024-01-11T07:08:28;35.53;;;20.35;;
52015;SDS011;38032;53.326;6.472;2024-01-11T07:10:54;35.92;;;19.30;;
52015;SDS011;38032;53.326;6.472;2024-01-11T07:13:20;36.00;;;19.73;;
52015;SDS011;38032;53.326;6.472;2024-01-11T07:15:46;38.80;;;19.85;;
52015;SDS011;38032;53.326;6.472;2024-01-11T07:18:13;35.83;;;20.13;;
52015;SDS011;38032;53.326;6.472;2024-01-11T07:20:39;36.85;;;20.20;;
52015;SDS011;38032;53.326;6.472;2024-01-11T07:23:05;36.83;;;20.35;;
52015;SDS011;38032;53.326;6.472;2024-01-11T07:25:32;36.50;;;19.58;;
52015;SDS011;38032;53.326;6.472;2024-01-11T07:28:00;39.25;;;19.77;;
52015;SDS011;38032;53.326;6.472;2024-01-11T07:30:26;34.85;;;19.00;;
52015;SDS011;38032;53.326;6.472;2024-01-11T07:32:52;37.25;;;19.63;;
52015;SDS011;38032;53.326;6.472;2024-01-11T07:35:17;34.28;;;19.40;;
52015;SDS011;38032;53.326;6.472;2024-01-11T07:37:43;37.40;;;19.25;;
52015;SDS011;38032;53.326;6.472;2024-01-11T07:40:09;34.58;;;19.73;;
52015;SDS011;38032;53.326;6.472;2024-01-11T07:42:37;36.55;;;19.70;;
52015;SDS011;38032;53.326;6.472;2024-01-11T07:45:04;33.90;;;18.75;;
52015;SDS011;38032;53.326;6.472;2024-01-11T07:47:30;35.47;;;19.23;;
52015;SDS011;38032;53.326;6.472;2024-01-11T07:49:57;36.45;;;19.23;;
52015;SDS011;38032;53.326;6.472;2024-01-11T07:52:22;35.25;;;18.75;;
52015;SDS011;38032;53.326;6.472;2024-01-11T07:54:48;34.97;;;19.20;;
52015;SDS011;38032;53.326;6.472;2024-01-11T07:57:14;35.55;;;19.55;;
52015;SDS011;38032;53.326;6.472;2024-01-11T07:59:40;33.13;;;18.20;;
52015;SDS011;38032;53.326;6.472;2024-01-11T08:02:06;33.70;;;18.38;;
52015;SDS011;38032;53.326;6.472;2024-01-11T08:04:32;31.33;;;17.02;;
52015;SDS011;38032;53.326;6.472;2024-01-11T08:06:58;33.38;;;17.85;;
52015;SDS011;38032;53.326;6.472;2024-01-11T08:09:27;34.28;;;17.85;;
52015;SDS011;38032;53.326;6.472;2024-01-11T08:11:53;32.75;;;17.85;;
52015;SDS011;38032;53.326;6.472;2024-01-11T08:14:20;36.03;;;17.58;;
52015;SDS011;38032;53.326;6.472;2024-01-11T08:16:46;32.72;;;17.73;;
52015;SDS011;38032;53.326;6.472;2024-01-11T08:19:12;31.13;;;17.25;;
52015;SDS011;38032;53.326;6.472;2024-01-11T08:21:39;33.13;;;17.27;;
52015;SDS011;38032;53.326;6.472;2024-01-11T08:24:06;32.00;;;17.80;;
52015;SDS011;38032;53.326;6.472;2024-01-11T08:26:33;30.60;;;17.42;;
52015;SDS011;38032;53.326;6.472;2024-01-11T08:28:59;32.60;;;17.83;;
52015;SDS011;38032;53.326;6.472;2024-01-11T08:31:25;33.65;;;18.08;;
52015;SDS011;38032;53.326;6.472;2024-01-11T08:33:51;34.95;;;18.85;;
52015;SDS011;38032;53.326;6.472;2024-01-11T08:36:17;34.90;;;18.35;;
52015;SDS011;38032;53.326;6.472;2024-01-11T08:38:43;31.70;;;18.23;;
52015;SDS011;38032;53.326;6.472;2024-01-11T08:41:09;32.83;;;17.73;;
52015;SDS011;38032;53.326;6.472;2024-01-11T08:43:35;28.98;;;16.45;;
52015;SDS011;38032;53.326;6.472;2024-01-11T08:46:00;31.23;;;17.58;;
52015;SDS011;38032;53.326;6.472;2024-01-11T08:48:27;32.88;;;17.33;;
52015;SDS011;38032;53.326;6.472;2024-01-11T08:50:53;30.98;;;17.63;;
52015;SDS011;38032;53.326;6.472;2024-01-11T08:53:19;28.77;;;16.95;;
52015;SDS011;38032;53.326;6.472;2024-01-11T08:55:45;29.75;;;16.85;;
52015;SDS011;38032;53.326;6.472;2024-01-11T08:58:11;30.60;;;16.80;;
52015;SDS011;38032;53.326;6.472;2024-01-11T09:00:37;31.63;;;16.85;;
52015;SDS011;38032;53.326;6.472;2024-01-11T09:03:03;31.65;;;17.00;;
52015;SDS011;38032;53.326;6.472;2024-01-11T09:05:29;29.08;;;17.00;;
52015;SDS011;38032;53.326;6.472;2024-01-11T09:07:55;29.67;;;16.83;;
52015;SDS011;38032;53.326;6.472;2024-01-11T09:10:21;30.95;;;17.10;;
52015;SDS011;38032;53.326;6.472;2024-01-11T09:12:47;31.15;;;17.30;;
52015;SDS011;38032;53.326;6.472;2024-01-11T09:15:13;30.08;;;17.60;;
52015;SDS011;38032;53.326;6.472;2024-01-11T09:17:39;29.88;;;17.80;;
52015;SDS011;38032;53.326;6.472;2024-01-11T09:20:05;28.17;;;15.57;;
52015;SDS011;38032;53.326;6.472;2024-01-11T09:22:31;30.00;;;16.20;;
52015;SDS011;38032;53.326;6.472;2024-01-11T09:24:58;25.98;;;16.48;;
52015;SDS011;38032;53.326;6.472;2024-01-11T09:27:23;25.67;;;15.82;;
52015;SDS011;38032;53.326;6.472;2024-01-11T09:29:49;30.20;;;16.90;;
52015;SDS011;38032;53.326;6.472;2024-01-11T09:32:15;26.80;;;15.20;;
52015;SDS011;38032;53.326;6.472;2024-01-11T09:34:41;28.30;;;15.95;;
52015;SDS011;38032;53.326;6.472;2024-01-11T09:37:07;29.10;;;16.63;;
52015;SDS011;38032;53.326;6.472;2024-01-11T09:39:33;27.48;;;16.52;;
52015;SDS011;38032;53.326;6.472;2024-01-11T09:42:04;26.00;;;15.98;;
52015;SDS011;38032;53.326;6.472;2024-01-11T09:44:32;29.75;;;17.33;;
52015;SDS011;38032;53.326;6.472;2024-01-11T09:47:00;30.38;;;16.23;;
52015;SDS011;38032;53.326;6.472;2024-01-11T09:49:27;31.85;;;16.73;;
52015;SDS011;38032;53.326;6.472;2024-01-11T09:51:55;30.02;;;16.85;;
52015;SDS011;38032;53.326;6.472;2024-01-11T09:54:22;27.42;;;16.45;;
52015;SDS011;38032;53.326;6.472;2024-01-11T09:56:50;27.27;;;15.98;;
52015;SDS011;38032;53.326;6.472;2024-01-11T09:59:18;26.95;;;15.80;;
52015;SDS011;38032;53.326;6.472;2024-01-11T10:01:45;27.38;;;16.25;;
52015;SDS011;38032;53.326;6.472;2024-01-11T10:04:11;27.52;;;16.95;;
52015;SDS011;38032;53.326;6.472;2024-01-11T10:06:39;27.00;;;16.02;;
52015;SDS011;38032;53.326;6.472;2024-01-11T10:09:06;24.40;;;15.27;;
52015;SDS011;38032;53.326;6.472;2024-01-11T10:11:32;27.17;;;15.63;;
52015;SDS011;38032;53.326;6.472;2024-01-11T10:13:59;27.77;;;15.63;;
52015;SDS011;38032;53.326;6.472;2024-01-11T10:16:27;25.77;;;16.05;;
52015;SDS011;38032;53.326;6.472;2024-01-11T10:18:54;25.05;;;14.88;;
52015;SDS011;38032;53.326;6.472;2024-01-11T10:21:21;26.55;;;15.38;;
52015;SDS011;38032;53.326;6.472;2024-01-11T10:23:47;26.02;;;14.77;;
52015;SDS011;38032;53.326;6.472;2024-01-11T10:26:15;26.05;;;15.63;;
52015;SDS011;38032;53.326;6.472;2024-01-11T10:28:48;27.13;;;16.73;;
52015;SDS011;38032;53.326;6.472;2024-01-11T10:31:14;25.15;;;14.80;;
52015;SDS011;38032;53.326;6.472;2024-01-11T10:33:41;26.10;;;15.73;;
52015;SDS011;38032;53.326;6.472;2024-01-11T10:36:07;25.13;;;15.63;;
52015;SDS011;38032;53.326;6.472;2024-01-11T10:38:35;25.77;;;14.90;;
52015;SDS011;38032;53.326;6.472;2024-01-11T10:41:03;24.30;;;14.63;;
52015;SDS011;38032;53.326;6.472;2024-01-11T10:43:31;25.83;;;14.95;;
52015;SDS011;38032;53.326;6.472;2024-01-11T10:45:59;24.13;;;14.25;;
52015;SDS011;38032;53.326;6.472;2024-01-11T10:48:28;23.70;;;14.60;;
52015;SDS011;38032;53.326;6.472;2024-01-11T10:50:58;27.73;;;15.80;;
52015;SDS011;38032;53.326;6.472;2024-01-11T10:53:31;25.48;;;14.70;;
52015;SDS011;38032;53.326;6.472;2024-01-11T10:56:11;24.40;;;14.63;;
52015;SDS011;38032;53.326;6.472;2024-01-11T10:58:39;25.88;;;14.38;;
52015;SDS011;38032;53.326;6.472;2024-01-11T11:01:06;23.52;;;14.50;;
52015;SDS011;38032;53.326;6.472;2024-01-11T11:03:35;25.10;;;14.35;;
52015;SDS011;38032;53.326;6.472;2024-01-11T11:06:02;25.88;;;13.88;;
52015;SDS011;38032;53.326;6.472;2024-01-11T11:08:29;24.85;;;14.85;;
52015;SDS011;38032;53.326;6.472;2024-01-11T11:10:56;24.38;;;14.07;;
52015;SDS011;38032;53.326;6.472;2024-01-11T11:13:23;23.13;;;14.05;;
52015;SDS011;38032;53.326;6.472;2024-01-11T11:15:50;22.90;;;13.65;;
52015;SDS011;38032;53.326;6.472;2024-01-11T11:18:17;24.85;;;15.57;;
52015;SDS011;38032;53.326;6.472;2024-01-11T11:20:44;31.10;;;18.77;;
52015;SDS011;38032;53.326;6.472;2024-01-11T11:23:11;31.40;;;19.83;;
52015;SDS011;38032;53.326;6.472;2024-01-11T11:25:40;30.85;;;19.88;;
52015;SDS011;38032;53.326;6.472;2024-01-11T11:28:07;39.08;;;20.88;;
52015;SDS011;38032;53.326;6.472;2024-01-11T11:30:36;30.90;;;18.73;;
52015;SDS011;38032;53.326;6.472;2024-01-11T11:33:08;30.23;;;17.73;;
52015;SDS011;38032;53.326;6.472;2024-01-11T11:35:35;25.50;;;15.35;;
52015;SDS011;38032;53.326;6.472;2024-01-11T11:38:01;24.02;;;14.32;;
52015;SDS011;38032;53.326;6.472;2024-01-11T11:40:32;20.35;;;13.00;;
52015;SDS011;38032;53.326;6.472;2024-01-11T11:43:00;25.50;;;14.35;;
52015;SDS011;38032;53.326;6.472;2024-01-11T11:45:27;24.30;;;13.63;;
52015;SDS011;38032;53.326;6.472;2024-01-11T11:47:54;21.10;;;12.70;;
52015;SDS011;38032;53.326;6.472;2024-01-11T11:50:21;21.38;;;13.20;;
52015;SDS011;38032;53.326;6.472;2024-01-11T11:52:53;25.23;;;13.23;;
52015;SDS011;38032;53.326;6.472;2024-01-11T11:55:21;23.60;;;13.98;;
52015;SDS011;38032;53.326;6.472;2024-01-11T11:57:50;21.73;;;12.82;;
52015;SDS011;38032;53.326;6.472;2024-01-11T12:00:18;21.63;;;13.23;;
52015;SDS011;38032;53.326;6.472;2024-01-11T12:02:46;23.05;;;13.23;;
52015;SDS011;38032;53.326;6.472;2024-01-11T12:05:12;24.35;;;13.50;;
52015;SDS011;38032;53.326;6.472;2024-01-11T12:07:39;23.13;;;13.45;;
52015;SDS011;38032;53.326;6.472;2024-01-11T12:10:05;20.45;;;12.70;;
52015;SDS011;38032;53.326;6.472;2024-01-11T12:12:31;21.35;;;12.52;;
52015;SDS011;38032;53.326;6.472;2024-01-11T12:14:59;21.00;;;12.07;;
52015;SDS011;38032;53.326;6.472;2024-01-11T12:17:25;21.15;;;12.52;;
52015;SDS011;38032;53.326;6.472;2024-01-11T12:19:51;22.25;;;12.32;;
52015;SDS011;38032;53.326;6.472;2024-01-11T12:22:17;20.80;;;12.10;;
52015;SDS011;38032;53.326;6.472;2024-01-11T12:24:45;23.98;;;12.40;;
52015;SDS011;38032;53.326;6.472;2024-01-11T12:27:11;17.73;;;11.70;;
52015;SDS011;38032;53.326;6.472;2024-01-11T12:29:38;20.23;;;12.13;;
52015;SDS011;38032;53.326;6.472;2024-01-11T12:32:05;20.60;;;13.02;;
52015;SDS011;38032;53.326;6.472;2024-01-11T12:34:31;24.33;;;12.85;;
52015;SDS011;38032;53.326;6.472;2024-01-11T12:36:58;23.77;;;12.38;;
52015;SDS011;38032;53.326;6.472;2024-01-11T12:39:26;21.50;;;12.13;;
52015;SDS011;38032;53.326;6.472;2024-01-11T12:41:53;19.27;;;12.35;;
52015;SDS011;38032;53.326;6.472;2024-01-11T12:44:22;18.65;;;12.48;;
52015;SDS011;38032;53.326;6.472;2024-01-11T12:46:49;19.27;;;12.32;;
52015;SDS011;38032;53.326;6.472;2024-01-11T12:49:16;19.60;;;12.05;;
52015;SDS011;38032;53.326;6.472;2024-01-11T12:51:42;21.08;;;12.35;;
52015;SDS011;38032;53.326;6.472;2024-01-11T12:54:10;25.10;;;12.20;;
52015;SDS011;38032;53.326;6.472;2024-01-11T12:56:41;22.58;;;12.65;;
52015;SDS011;38032;53.326;6.472;2024-01-11T12:59:08;20.77;;;11.85;;
52015;SDS011;38032;53.326;6.472;2024-01-11T13:01:36;21.55;;;12.23;;
52015;SDS011;38032;53.326;6.472;2024-01-11T13:04:04;25.05;;;11.80;;
52015;SDS011;38032;53.326;6.472;2024-01-11T13:06:30;21.60;;;13.05;;
52015;SDS011;38032;53.326;6.472;2024-01-11T13:08:59;20.75;;;12.45;;
52015;SDS011;38032;53.326;6.472;2024-01-11T13:11:26;18.38;;;11.30;;
52015;SDS011;38032;53.326;6.472;2024-01-11T13:13:53;22.40;;;12.25;;
52015;SDS011;38032;53.326;6.472;2024-01-11T13:16:18;21.73;;;11.40;;
52015;SDS011;38032;53.326;6.472;2024-01-11T13:18:45;19.65;;;11.93;;
52015;SDS011;38032;53.326;6.472;2024-01-11T13:21:11;20.52;;;12.23;;
52015;SDS011;38032;53.326;6.472;2024-01-11T13:23:37;24.17;;;12.85;;
52015;SDS011;38032;53.326;6.472;2024-01-11T13:26:05;22.42;;;12.43;;
52015;SDS011;38032;53.326;6.472;2024-01-11T13:28:31;22.83;;;12.05;;
52015;SDS011;38032;53.326;6.472;2024-01-11T13:30:58;18.95;;;11.50;;
52015;SDS011;38032;53.326;6.472;2024-01-11T13:33:25;21.25;;;11.68;;
52015;SDS011;38032;53.326;6.472;2024-01-11T13:35:51;24.52;;;11.80;;
52015;SDS011;38032;53.326;6.472;2024-01-11T13:38:17;23.60;;;11.63;;
52015;SDS011;38032;53.326;6.472;2024-01-11T13:40:43;22.35;;;12.00;;
52015;SDS011;38032;53.326;6.472;2024-01-11T13:43:09;19.35;;;11.40;;
52015;SDS011;38032;53.326;6.472;2024-01-11T13:45:35;23.45;;;12.00;;
52015;SDS011;38032;53.326;6.472;2024-01-11T13:48:02;20.75;;;12.60;;
52015;SDS011;38032;53.326;6.472;2024-01-11T13:50:29;21.80;;;12.00;;
52015;SDS011;38032;53.326;6.472;2024-01-11T13:52:54;19.58;;;11.40;;
52015;SDS011;38032;53.326;6.472;2024-01-11T13:55:20;20.58;;;11.23;;
52015;SDS011;38032;53.326;6.472;2024-01-11T13:57:47;21.90;;;11.35;;
52015;SDS011;38032;53.326;6.472;2024-01-11T14:00:13;21.65;;;11.98;;
52015;SDS011;38032;53.326;6.472;2024-01-11T14:02:40;25.70;;;11.98;;
52015;SDS011;38032;53.326;6.472;2024-01-11T14:05:07;20.63;;;11.35;;
52015;SDS011;38032;53.326;6.472;2024-01-11T14:07:37;19.25;;;10.18;;
52015;SDS011;38032;53.326;6.472;2024-01-11T14:10:04;20.75;;;11.27;;
52015;SDS011;38032;53.326;6.472;2024-01-11T14:12:31;19.92;;;10.73;;
52015;SDS011;38032;53.326;6.472;2024-01-11T14:14:57;21.52;;;10.90;;
52015;SDS011;38032;53.326;6.472;2024-01-11T14:17:25;21.38;;;11.05;;